sensor_id;sensor_type;location;lat;lon;timestamp;P1;durP1;ratioP1;P2;durP2;ratioP2
61358;SDS011;47228;46.762;23.598;2023-02-04T00:00:27;15.60;;;11.50;;
61358;SDS011;47228;46.762;23.598;2023-02-04T00:03:17;16.40;;;11.40;;
61358;SDS011;47228;46.762;23.598;2023-02-04T00:05:45;17.10;;;11.80;;
61358;SDS011;47228;46.762;23.598;2023-02-04T00:08:13;20.60;;;11.90;;
61358;SDS011;47228;46.762;23.598;2023-02-04T00:10:41;19.00;;;12.10;;
61358;SDS011;47228;46.762;23.598;2023-02-04T00:13:09;19.10;;;12.10;;
61358;SDS011;47228;46.762;23.598;2023-02-04T00:15:37;17.50;;;12.50;;
61358;SDS011;47228;46.762;23.598;2023-02-04T00:18:05;19.30;;;12.30;;
61358;SDS011;47228;46.762;23.598;2023-02-04T00:20:33;19.60;;;11.90;;
61358;SDS011;47228;46.762;23.598;2023-02-04T00:23:01;21.40;;;11.00;;
61358;SDS011;47228;46.762;23.598;2023-02-04T00:25:29;18.10;;;11.40;;
61358;SDS011;47228;46.762;23.598;2023-02-04T00:27:57;21.50;;;12.00;;
61358;SDS011;47228;46.762;23.598;2023-02-04T00:30:25;16.70;;;11.30;;
61358;SDS011;47228;46.762;23.598;2023-02-04T00:32:53;16.80;;;10.50;;
61358;SDS011;47228;46.762;23.598;2023-02-04T00:35:23;22.80;;;12.30;;
61358;SDS011;47228;46.762;23.598;2023-02-04T00:37:51;17.00;;;10.80;;
61358;SDS011;47228;46.762;23.598;2023-02-04T00:40:19;17.10;;;10.50;;
61358;SDS011;47228;46.762;23.598;2023-02-04T00:42:47;19.40;;;11.40;;
61358;SDS011;47228;46.762;23.598;2023-02-04T00:45:15;18.10;;;11.20;;
61358;SDS011;47228;46.762;23.598;2023-02-04T00:47:43;21.10;;;13.00;;
61358;SDS011;47228;46.762;23.598;2023-02-04T00:50:12;20.40;;;13.90;;
61358;SDS011;47228;46.762;23.598;2023-02-04T00:52:40;20.60;;;13.60;;
61358;SDS011;47228;46.762;23.598;2023-02-04T00:55:08;16.80;;;11.00;;
61358;SDS011;47228;46.762;23.598;2023-02-04T00:57:38;14.30;;;11.00;;
61358;SDS011;47228;46.762;23.598;2023-02-04T01:00:06;14.90;;;10.60;;
61358;SDS011;47228;46.762;23.598;2023-02-04T01:02:35;15.50;;;10.00;;
61358;SDS011;47228;46.762;23.598;2023-02-04T01:05:03;13.80;;;9.90;;
61358;SDS011;47228;46.762;23.598;2023-02-04T01:07:31;15.20;;;9.80;;
61358;SDS011;47228;46.762;23.598;2023-02-04T01:09:59;13.60;;;9.60;;
61358;SDS011;47228;46.762;23.598;2023-02-04T01:12:27;18.30;;;11.60;;
61358;SDS011;47228;46.762;23.598;2023-02-04T01:14:55;16.00;;;10.30;;
61358;SDS011;47228;46.762;23.598;2023-02-04T01:17:23;15.90;;;10.90;;
61358;SDS011;47228;46.762;23.598;2023-02-04T01:19:51;14.40;;;10.20;;
61358;SDS011;47228;46.762;23.598;2023-02-04T01:22:20;15.50;;;10.60;;
61358;SDS011;47228;46.762;23.598;2023-02-04T01:24:48;14.10;;;10.30;;
61358;SDS011;47228;46.762;23.598;2023-02-04T01:27:17;22.10;;;12.30;;
61358;SDS011;47228;46.762;23.598;2023-02-04T01:29:45;23.10;;;13.50;;
61358;SDS011;47228;46.762;23.598;2023-02-04T01:32:13;21.50;;;11.70;;
61358;SDS011;47228;46.762;23.598;2023-02-04T01:34:40;19.30;;;12.60;;
61358;SDS011;47228;46.762;23.598;2023-02-04T01:37:08;19.50;;;12.10;;
61358;SDS011;47228;46.762;23.598;2023-02-04T01:39:36;17.30;;;11.50;;
61358;SDS011;47228;46.762;23.598;2023-02-04T01:42:04;16.90;;;11.10;;
61358;SDS011;47228;46.762;23.598;2023-02-04T01:44:33;16.50;;;10.90;;
61358;SDS011;47228;46.762;23.598;2023-02-04T01:47:01;18.90;;;12.90;;
61358;SDS011;47228;46.762;23.598;2023-02-04T01:49:29;19.80;;;12.70;;
61358;SDS011;47228;46.762;23.598;2023-02-04T01:51:57;17.20;;;11.30;;
61358;SDS011;47228;46.762;23.598;2023-02-04T01:54:25;16.50;;;11.50;;
61358;SDS011;47228;46.762;23.598;2023-02-04T01:56:54;17.50;;;12.00;;
61358;SDS011;47228;46.762;23.598;2023-02-04T01:59:22;18.90;;;12.70;;
61358;SDS011;47228;46.762;23.598;2023-02-04T02:01:51;21.20;;;13.20;;
61358;SDS011;47228;46.762;23.598;2023-02-04T02:04:22;18.70;;;13.80;;
61358;SDS011;47228;46.762;23.598;2023-02-04T02:07:02;20.00;;;13.20;;
61358;SDS011;47228;46.762;23.598;2023-02-04T02:09:32;19.80;;;13.00;;
61358;SDS011;47228;46.762;23.598;2023-02-04T02:12:01;20.80;;;13.60;;
61358;SDS011;47228;46.762;23.598;2023-02-04T02:14:30;18.60;;;12.40;;
61358;SDS011;47228;46.762;23.598;2023-02-04T02:16:58;18.60;;;13.00;;
61358;SDS011;47228;46.762;23.598;2023-02-04T02:19:28;21.20;;;13.80;;
61358;SDS011;47228;46.762;23.598;2023-02-04T02:22:22;20.90;;;13.60;;
61358;SDS011;47228;46.762;23.598;2023-02-04T02:24:55;18.40;;;12.30;;
61358;SDS011;47228;46.762;23.598;2023-02-04T02:27:23;17.00;;;11.70;;
61358;SDS011;47228;46.762;23.598;2023-02-04T02:29:51;17.40;;;11.90;;
61358;SDS011;47228;46.762;23.598;2023-02-04T02:32:19;19.60;;;12.60;;
61358;SDS011;47228;46.762;23.598;2023-02-04T02:34:47;17.90;;;12.30;;
61358;SDS011;47228;46.762;23.598;2023-02-04T02:37:15;19.60;;;13.60;;
61358;SDS011;47228;46.762;23.598;2023-02-04T02:39:43;20.90;;;13.70;;
61358;SDS011;47228;46.762;23.598;2023-02-04T02:42:13;23.40;;;13.30;;
61358;SDS011;47228;46.762;23.598;2023-02-04T02:44:43;22.60;;;13.00;;
61358;SDS011;47228;46.762;23.598;2023-02-04T02:47:18;24.60;;;14.40;;
61358;SDS011;47228;46.762;23.598;2023-02-04T02:49:48;20.70;;;13.70;;
61358;SDS011;47228;46.762;23.598;2023-02-04T02:52:18;24.00;;;15.20;;
61358;SDS011;47228;46.762;23.598;2023-02-04T02:54:46;25.80;;;15.60;;
61358;SDS011;47228;46.762;23.598;2023-02-04T02:57:16;21.80;;;14.80;;
61358;SDS011;47228;46.762;23.598;2023-02-04T02:59:47;23.20;;;14.10;;
61358;SDS011;47228;46.762;23.598;2023-02-04T03:02:16;21.10;;;13.40;;
61358;SDS011;47228;46.762;23.598;2023-02-04T03:04:49;19.60;;;13.30;;
61358;SDS011;47228;46.762;23.598;2023-02-04T03:07:22;24.10;;;13.00;;
61358;SDS011;47228;46.762;23.598;2023-02-04T03:09:50;19.60;;;12.00;;
61358;SDS011;47228;46.762;23.598;2023-02-04T03:12:20;19.40;;;11.60;;
61358;SDS011;47228;46.762;23.598;2023-02-04T03:14:48;17.20;;;11.20;;
61358;SDS011;47228;46.762;23.598;2023-02-04T03:17:16;18.90;;;11.70;;
61358;SDS011;47228;46.762;23.598;2023-02-04T03:19:44;16.10;;;10.90;;
61358;SDS011;47228;46.762;23.598;2023-02-04T03:22:12;17.20;;;10.80;;
61358;SDS011;47228;46.762;23.598;2023-02-04T03:24:40;18.00;;;11.80;;
61358;SDS011;47228;46.762;23.598;2023-02-04T03:27:08;19.70;;;11.10;;
61358;SDS011;47228;46.762;23.598;2023-02-04T03:29:41;17.00;;;10.40;;
61358;SDS011;47228;46.762;23.598;2023-02-04T03:34:38;17.30;;;9.40;;
61358;SDS011;47228;46.762;23.598;2023-02-04T03:37:06;15.00;;;9.90;;
61358;SDS011;47228;46.762;23.598;2023-02-04T03:39:34;15.70;;;10.00;;
61358;SDS011;47228;46.762;23.598;2023-02-04T03:42:02;17.10;;;9.60;;
61358;SDS011;47228;46.762;23.598;2023-02-04T03:44:30;14.40;;;8.90;;
61358;SDS011;47228;46.762;23.598;2023-02-04T03:46:58;15.80;;;9.00;;
61358;SDS011;47228;46.762;23.598;2023-02-04T03:49:26;14.90;;;9.10;;
61358;SDS011;47228;46.762;23.598;2023-02-04T03:51:55;13.90;;;8.90;;
61358;SDS011;47228;46.762;23.598;2023-02-04T03:54:23;12.60;;;7.70;;
61358;SDS011;47228;46.762;23.598;2023-02-04T03:56:51;12.50;;;8.00;;
61358;SDS011;47228;46.762;23.598;2023-02-04T03:59:18;12.40;;;7.40;;
61358;SDS011;47228;46.762;23.598;2023-02-04T04:01:46;15.80;;;9.00;;
61358;SDS011;47228;46.762;23.598;2023-02-04T04:04:15;15.10;;;9.20;;
61358;SDS011;47228;46.762;23.598;2023-02-04T04:06:43;14.10;;;8.50;;
61358;SDS011;47228;46.762;23.598;2023-02-04T04:09:10;14.20;;;8.60;;
61358;SDS011;47228;46.762;23.598;2023-02-04T04:11:40;13.40;;;8.50;;
61358;SDS011;47228;46.762;23.598;2023-02-04T04:14:08;18.50;;;9.80;;
61358;SDS011;47228;46.762;23.598;2023-02-04T04:16:36;14.90;;;9.00;;
61358;SDS011;47228;46.762;23.598;2023-02-04T04:19:03;18.10;;;10.00;;
61358;SDS011;47228;46.762;23.598;2023-02-04T04:21:32;15.40;;;9.90;;
61358;SDS011;47228;46.762;23.598;2023-02-04T04:24:00;13.60;;;8.70;;
61358;SDS011;47228;46.762;23.598;2023-02-04T04:26:27;17.60;;;9.90;;
61358;SDS011;47228;46.762;23.598;2023-02-04T04:28:55;16.80;;;9.40;;
61358;SDS011;47228;46.762;23.598;2023-02-04T04:31:23;20.60;;;10.80;;
61358;SDS011;47228;46.762;23.598;2023-02-04T04:33:51;15.50;;;9.90;;
61358;SDS011;47228;46.762;23.598;2023-02-04T04:36:19;21.30;;;13.40;;
61358;SDS011;47228;46.762;23.598;2023-02-04T04:38:47;26.00;;;15.50;;
61358;SDS011;47228;46.762;23.598;2023-02-04T04:41:15;30.60;;;16.20;;
61358;SDS011;47228;46.762;23.598;2023-02-04T04:43:43;27.50;;;15.90;;
61358;SDS011;47228;46.762;23.598;2023-02-04T04:46:11;35.60;;;18.50;;
61358;SDS011;47228;46.762;23.598;2023-02-04T04:48:39;33.40;;;18.80;;
61358;SDS011;47228;46.762;23.598;2023-02-04T04:51:07;42.60;;;22.10;;
61358;SDS011;47228;46.762;23.598;2023-02-04T04:53:35;41.20;;;21.60;;
61358;SDS011;47228;46.762;23.598;2023-02-04T04:56:03;36.80;;;20.00;;
61358;SDS011;47228;46.762;23.598;2023-02-04T04:58:32;41.60;;;20.90;;
61358;SDS011;47228;46.762;23.598;2023-02-04T05:00:59;41.80;;;21.80;;
61358;SDS011;47228;46.762;23.598;2023-02-04T05:03:27;38.00;;;19.70;;
61358;SDS011;47228;46.762;23.598;2023-02-04T05:05:56;42.10;;;21.50;;
61358;SDS011;47228;46.762;23.598;2023-02-04T05:08:23;40.40;;;19.50;;
61358;SDS011;47228;46.762;23.598;2023-02-04T05:10:51;38.10;;;19.00;;
61358;SDS011;47228;46.762;23.598;2023-02-04T05:13:19;36.10;;;19.30;;
61358;SDS011;47228;46.762;23.598;2023-02-04T05:15:47;51.60;;;20.90;;
61358;SDS011;47228;46.762;23.598;2023-02-04T05:18:15;40.00;;;21.60;;
61358;SDS011;47228;46.762;23.598;2023-02-04T05:20:43;38.80;;;18.90;;
61358;SDS011;47228;46.762;23.598;2023-02-04T05:23:11;47.50;;;22.10;;
61358;SDS011;47228;46.762;23.598;2023-02-04T05:25:39;47.90;;;23.30;;
61358;SDS011;47228;46.762;23.598;2023-02-04T05:28:07;46.90;;;22.20;;
61358;SDS011;47228;46.762;23.598;2023-02-04T05:30:35;42.00;;;20.50;;
61358;SDS011;47228;46.762;23.598;2023-02-04T05:33:03;43.20;;;22.30;;
61358;SDS011;47228;46.762;23.598;2023-02-04T05:35:30;44.80;;;21.20;;
61358;SDS011;47228;46.762;23.598;2023-02-04T05:37:58;47.30;;;22.40;;
61358;SDS011;47228;46.762;23.598;2023-02-04T05:40:26;48.00;;;23.50;;
61358;SDS011;47228;46.762;23.598;2023-02-04T05:42:54;46.80;;;23.20;;
61358;SDS011;47228;46.762;23.598;2023-02-04T05:45:22;46.00;;;21.50;;
61358;SDS011;47228;46.762;23.598;2023-02-04T05:47:50;49.20;;;22.30;;
61358;SDS011;47228;46.762;23.598;2023-02-04T05:50:19;51.70;;;23.30;;
61358;SDS011;47228;46.762;23.598;2023-02-04T05:52:47;44.00;;;23.40;;
61358;SDS011;47228;46.762;23.598;2023-02-04T05:55:15;46.00;;;22.30;;
61358;SDS011;47228;46.762;23.598;2023-02-04T05:57:42;44.50;;;21.90;;
61358;SDS011;47228;46.762;23.598;2023-02-04T06:00:11;49.10;;;23.10;;
61358;SDS011;47228;46.762;23.598;2023-02-04T06:02:39;49.40;;;23.70;;
61358;SDS011;47228;46.762;23.598;2023-02-04T06:05:07;51.20;;;24.30;;
61358;SDS011;47228;46.762;23.598;2023-02-04T06:07:35;49.60;;;23.40;;
61358;SDS011;47228;46.762;23.598;2023-02-04T06:10:03;46.30;;;23.30;;
61358;SDS011;47228;46.762;23.598;2023-02-04T06:12:31;50.40;;;23.10;;
61358;SDS011;47228;46.762;23.598;2023-02-04T06:14:59;52.50;;;25.00;;
61358;SDS011;47228;46.762;23.598;2023-02-04T06:17:27;55.60;;;25.60;;
61358;SDS011;47228;46.762;23.598;2023-02-04T06:19:55;50.30;;;24.00;;
61358;SDS011;47228;46.762;23.598;2023-02-04T06:22:23;63.30;;;27.00;;
61358;SDS011;47228;46.762;23.598;2023-02-04T06:24:52;59.30;;;25.60;;
61358;SDS011;47228;46.762;23.598;2023-02-04T06:27:21;54.40;;;24.90;;
61358;SDS011;47228;46.762;23.598;2023-02-04T06:29:52;48.00;;;22.40;;
61358;SDS011;47228;46.762;23.598;2023-02-04T06:32:20;52.50;;;23.50;;
61358;SDS011;47228;46.762;23.598;2023-02-04T06:34:50;54.40;;;24.30;;
61358;SDS011;47228;46.762;23.598;2023-02-04T06:37:18;44.60;;;21.40;;
61358;SDS011;47228;46.762;23.598;2023-02-04T06:39:46;46.00;;;21.10;;
61358;SDS011;47228;46.762;23.598;2023-02-04T06:42:15;46.40;;;21.90;;
61358;SDS011;47228;46.762;23.598;2023-02-04T06:44:43;39.40;;;21.00;;
61358;SDS011;47228;46.762;23.598;2023-02-04T06:47:11;43.10;;;21.10;;
61358;SDS011;47228;46.762;23.598;2023-02-04T06:49:38;40.80;;;19.30;;
61358;SDS011;47228;46.762;23.598;2023-02-04T06:52:06;40.40;;;20.60;;
61358;SDS011;47228;46.762;23.598;2023-02-04T06:54:34;44.40;;;20.30;;
61358;SDS011;47228;46.762;23.598;2023-02-04T06:57:02;40.00;;;19.50;;
61358;SDS011;47228;46.762;23.598;2023-02-04T06:59:34;44.00;;;20.10;;
61358;SDS011;47228;46.762;23.598;2023-02-04T07:02:03;39.30;;;19.50;;
61358;SDS011;47228;46.762;23.598;2023-02-04T07:04:32;40.40;;;20.00;;
61358;SDS011;47228;46.762;23.598;2023-02-04T07:07:01;42.70;;;20.90;;
61358;SDS011;47228;46.762;23.598;2023-02-04T07:09:29;39.70;;;20.10;;
61358;SDS011;47228;46.762;23.598;2023-02-04T07:11:57;45.30;;;20.90;;
61358;SDS011;47228;46.762;23.598;2023-02-04T07:14:25;45.80;;;20.60;;
61358;SDS011;47228;46.762;23.598;2023-02-04T07:16:53;39.90;;;19.90;;
61358;SDS011;47228;46.762;23.598;2023-02-04T07:19:21;45.40;;;20.20;;
61358;SDS011;47228;46.762;23.598;2023-02-04T07:21:49;36.60;;;18.00;;
61358;SDS011;47228;46.762;23.598;2023-02-04T07:24:20;40.00;;;19.50;;
61358;SDS011;47228;46.762;23.598;2023-02-04T07:26:48;43.10;;;20.80;;
61358;SDS011;47228;46.762;23.598;2023-02-04T07:29:16;44.70;;;20.90;;
61358;SDS011;47228;46.762;23.598;2023-02-04T07:31:52;40.20;;;18.90;;
61358;SDS011;47228;46.762;23.598;2023-02-04T07:34:20;52.90;;;20.50;;
61358;SDS011;47228;46.762;23.598;2023-02-04T07:36:48;41.20;;;19.60;;
61358;SDS011;47228;46.762;23.598;2023-02-04T07:39:17;49.40;;;21.00;;
61358;SDS011;47228;46.762;23.598;2023-02-04T07:41:44;43.30;;;20.40;;
61358;SDS011;47228;46.762;23.598;2023-02-04T07:44:12;45.30;;;20.80;;
61358;SDS011;47228;46.762;23.598;2023-02-04T07:46:40;44.80;;;22.30;;
61358;SDS011;47228;46.762;23.598;2023-02-04T07:49:08;53.70;;;23.00;;
61358;SDS011;47228;46.762;23.598;2023-02-04T07:51:36;50.50;;;22.00;;
61358;SDS011;47228;46.762;23.598;2023-02-04T07:54:04;49.40;;;23.50;;
61358;SDS011;47228;46.762;23.598;2023-02-04T07:56:32;45.90;;;22.80;;
61358;SDS011;47228;46.762;23.598;2023-02-04T07:59:00;50.90;;;24.00;;
61358;SDS011;47228;46.762;23.598;2023-02-04T08:01:28;50.60;;;22.50;;
61358;SDS011;47228;46.762;23.598;2023-02-04T08:03:56;46.40;;;22.00;;
61358;SDS011;47228;46.762;23.598;2023-02-04T08:06:24;50.10;;;21.60;;
61358;SDS011;47228;46.762;23.598;2023-02-04T08:08:51;44.80;;;19.90;;
61358;SDS011;47228;46.762;23.598;2023-02-04T08:11:19;42.30;;;20.30;;
61358;SDS011;47228;46.762;23.598;2023-02-04T08:13:47;42.10;;;20.40;;
61358;SDS011;47228;46.762;23.598;2023-02-04T08:16:15;48.90;;;21.30;;
61358;SDS011;47228;46.762;23.598;2023-02-04T08:18:43;42.50;;;18.80;;
61358;SDS011;47228;46.762;23.598;2023-02-04T08:21:11;46.20;;;20.30;;
61358;SDS011;47228;46.762;23.598;2023-02-04T08:23:39;43.40;;;19.50;;
61358;SDS011;47228;46.762;23.598;2023-02-04T08:26:09;48.60;;;20.80;;
61358;SDS011;47228;46.762;23.598;2023-02-04T08:28:37;50.10;;;21.90;;
61358;SDS011;47228;46.762;23.598;2023-02-04T08:31:06;48.10;;;22.40;;
61358;SDS011;47228;46.762;23.598;2023-02-04T08:33:38;44.90;;;20.30;;
61358;SDS011;47228;46.762;23.598;2023-02-04T08:36:06;49.20;;;21.20;;
61358;SDS011;47228;46.762;23.598;2023-02-04T08:38:34;48.40;;;20.90;;
61358;SDS011;47228;46.762;23.598;2023-02-04T08:41:02;47.00;;;20.00;;
61358;SDS011;47228;46.762;23.598;2023-02-04T08:43:30;47.30;;;21.70;;
61358;SDS011;47228;46.762;23.598;2023-02-04T08:45:58;56.20;;;24.40;;
61358;SDS011;47228;46.762;23.598;2023-02-04T08:48:26;55.10;;;23.40;;
61358;SDS011;47228;46.762;23.598;2023-02-04T08:50:54;52.60;;;24.10;;
61358;SDS011;47228;46.762;23.598;2023-02-04T08:53:22;58.60;;;25.00;;
61358;SDS011;47228;46.762;23.598;2023-02-04T08:55:50;50.00;;;24.20;;
61358;SDS011;47228;46.762;23.598;2023-02-04T08:58:18;48.80;;;21.30;;
61358;SDS011;47228;46.762;23.598;2023-02-04T09:00:48;48.60;;;20.80;;
61358;SDS011;47228;46.762;23.598;2023-02-04T09:03:16;47.10;;;22.10;;
61358;SDS011;47228;46.762;23.598;2023-02-04T09:05:44;49.10;;;20.30;;
61358;SDS011;47228;46.762;23.598;2023-02-04T09:08:12;51.20;;;21.10;;
61358;SDS011;47228;46.762;23.598;2023-02-04T09:10:42;41.30;;;18.90;;
61358;SDS011;47228;46.762;23.598;2023-02-04T09:13:10;48.60;;;20.60;;
61358;SDS011;47228;46.762;23.598;2023-02-04T09:15:38;51.50;;;22.10;;
61358;SDS011;47228;46.762;23.598;2023-02-04T09:18:06;53.80;;;22.90;;
61358;SDS011;47228;46.762;23.598;2023-02-04T09:20:43;60.00;;;25.00;;
61358;SDS011;47228;46.762;23.598;2023-02-04T09:23:11;55.90;;;25.40;;
61358;SDS011;47228;46.762;23.598;2023-02-04T09:25:40;58.40;;;25.50;;
61358;SDS011;47228;46.762;23.598;2023-02-04T09:28:10;62.00;;;26.30;;
61358;SDS011;47228;46.762;23.598;2023-02-04T09:30:39;57.80;;;26.80;;
61358;SDS011;47228;46.762;23.598;2023-02-04T09:33:09;61.70;;;26.70;;
61358;SDS011;47228;46.762;23.598;2023-02-04T09:35:38;58.30;;;26.50;;
61358;SDS011;47228;46.762;23.598;2023-02-04T09:38:07;64.50;;;27.70;;
61358;SDS011;47228;46.762;23.598;2023-02-04T09:40:36;65.60;;;27.20;;
61358;SDS011;47228;46.762;23.598;2023-02-04T09:43:11;63.00;;;25.50;;
61358;SDS011;47228;46.762;23.598;2023-02-04T09:45:48;56.00;;;25.40;;
61358;SDS011;47228;46.762;23.598;2023-02-04T09:48:16;54.10;;;24.30;;
61358;SDS011;47228;46.762;23.598;2023-02-04T09:50:45;53.10;;;23.10;;
61358;SDS011;47228;46.762;23.598;2023-02-04T09:53:13;57.80;;;24.30;;
61358;SDS011;47228;46.762;23.598;2023-02-04T09:55:46;51.00;;;22.60;;
61358;SDS011;47228;46.762;23.598;2023-02-04T09:58:16;55.50;;;25.30;;
61358;SDS011;47228;46.762;23.598;2023-02-04T10:00:46;61.20;;;23.50;;
61358;SDS011;47228;46.762;23.598;2023-02-04T10:03:35;60.90;;;24.60;;
61358;SDS011;47228;46.762;23.598;2023-02-04T10:06:03;63.90;;;26.00;;
61358;SDS011;47228;46.762;23.598;2023-02-04T10:08:31;57.70;;;26.10;;
61358;SDS011;47228;46.762;23.598;2023-02-04T10:11:00;49.40;;;22.30;;
61358;SDS011;47228;46.762;23.598;2023-02-04T10:13:30;46.90;;;20.50;;
61358;SDS011;47228;46.762;23.598;2023-02-04T10:16:01;61.80;;;23.70;;
61358;SDS011;47228;46.762;23.598;2023-02-04T10:18:36;63.90;;;25.60;;
61358;SDS011;47228;46.762;23.598;2023-02-04T10:21:11;60.10;;;24.90;;
61358;SDS011;47228;46.762;23.598;2023-02-04T10:23:42;64.60;;;28.00;;
61358;SDS011;47228;46.762;23.598;2023-02-04T10:26:14;64.40;;;29.10;;
61358;SDS011;47228;46.762;23.598;2023-02-04T10:28:42;61.70;;;28.60;;
61358;SDS011;47228;46.762;23.598;2023-02-04T10:31:26;70.20;;;30.20;;
61358;SDS011;47228;46.762;23.598;2023-02-04T10:36:39;72.00;;;28.80;;
61358;SDS011;47228;46.762;23.598;2023-02-04T10:41:44;59.00;;;26.50;;
61358;SDS011;47228;46.762;23.598;2023-02-04T10:46:58;60.10;;;27.00;;
61358;SDS011;47228;46.762;23.598;2023-02-04T10:49:36;66.70;;;29.80;;
61358;SDS011;47228;46.762;23.598;2023-02-04T10:52:14;65.50;;;29.20;;
61358;SDS011;47228;46.762;23.598;2023-02-04T10:54:44;69.40;;;28.10;;
61358;SDS011;47228;46.762;23.598;2023-02-04T10:59:49;61.40;;;24.30;;
61358;SDS011;47228;46.762;23.598;2023-02-04T11:05:10;62.70;;;26.20;;
61358;SDS011;47228;46.762;23.598;2023-02-04T11:07:40;61.00;;;24.90;;
61358;SDS011;47228;46.762;23.598;2023-02-04T11:10:11;61.00;;;26.30;;
61358;SDS011;47228;46.762;23.598;2023-02-04T11:12:58;72.90;;;30.70;;
61358;SDS011;47228;46.762;23.598;2023-02-04T11:16:06;69.80;;;30.30;;
61358;SDS011;47228;46.762;23.598;2023-02-04T11:21:24;69.50;;;27.80;;
61358;SDS011;47228;46.762;23.598;2023-02-04T11:29:44;64.80;;;27.70;;
61358;SDS011;47228;46.762;23.598;2023-02-04T11:32:28;65.60;;;27.70;;
61358;SDS011;47228;46.762;23.598;2023-02-04T11:35:15;58.90;;;25.80;;
61358;SDS011;47228;46.762;23.598;2023-02-04T11:37:49;62.30;;;25.60;;
61358;SDS011;47228;46.762;23.598;2023-02-04T11:40:33;60.30;;;27.80;;
61358;SDS011;47228;46.762;23.598;2023-02-04T11:43:14;60.10;;;27.20;;
61358;SDS011;47228;46.762;23.598;2023-02-04T11:45:43;58.90;;;27.00;;
61358;SDS011;47228;46.762;23.598;2023-02-04T11:48:11;62.00;;;27.80;;
61358;SDS011;47228;46.762;23.598;2023-02-04T11:50:42;61.90;;;27.80;;
61358;SDS011;47228;46.762;23.598;2023-02-04T11:53:29;59.00;;;25.30;;
61358;SDS011;47228;46.762;23.598;2023-02-04T11:55:58;58.90;;;25.90;;
61358;SDS011;47228;46.762;23.598;2023-02-04T11:58:27;57.30;;;27.00;;
61358;SDS011;47228;46.762;23.598;2023-02-04T12:00:57;61.80;;;28.00;;
61358;SDS011;47228;46.762;23.598;2023-02-04T12:03:27;59.70;;;25.80;;
61358;SDS011;47228;46.762;23.598;2023-02-04T12:05:57;56.10;;;25.20;;
61358;SDS011;47228;46.762;23.598;2023-02-04T12:08:30;56.10;;;24.20;;
61358;SDS011;47228;46.762;23.598;2023-02-04T12:13:29;58.50;;;25.60;;
61358;SDS011;47228;46.762;23.598;2023-02-04T12:18:26;68.70;;;30.00;;
61358;SDS011;47228;46.762;23.598;2023-02-04T12:20:55;71.60;;;31.70;;
61358;SDS011;47228;46.762;23.598;2023-02-04T12:23:25;73.70;;;31.40;;
61358;SDS011;47228;46.762;23.598;2023-02-04T12:25:54;71.50;;;32.90;;
61358;SDS011;47228;46.762;23.598;2023-02-04T12:28:23;71.30;;;31.80;;
61358;SDS011;47228;46.762;23.598;2023-02-04T12:30:51;73.80;;;33.80;;
61358;SDS011;47228;46.762;23.598;2023-02-04T12:33:19;68.40;;;34.00;;
61358;SDS011;47228;46.762;23.598;2023-02-04T12:35:47;68.20;;;30.50;;
61358;SDS011;47228;46.762;23.598;2023-02-04T12:38:15;77.20;;;31.20;;
61358;SDS011;47228;46.762;23.598;2023-02-04T12:40:44;70.30;;;30.80;;
61358;SDS011;47228;46.762;23.598;2023-02-04T12:43:12;67.30;;;29.80;;
61358;SDS011;47228;46.762;23.598;2023-02-04T12:45:40;67.40;;;30.90;;
61358;SDS011;47228;46.762;23.598;2023-02-04T12:48:14;55.00;;;25.50;;
61358;SDS011;47228;46.762;23.598;2023-02-04T12:50:43;63.70;;;28.80;;
61358;SDS011;47228;46.762;23.598;2023-02-04T12:53:11;44.60;;;21.20;;
61358;SDS011;47228;46.762;23.598;2023-02-04T12:55:38;35.10;;;17.70;;
61358;SDS011;47228;46.762;23.598;2023-02-04T12:58:06;37.10;;;18.50;;
61358;SDS011;47228;46.762;23.598;2023-02-04T13:00:34;37.70;;;17.60;;
61358;SDS011;47228;46.762;23.598;2023-02-04T13:03:03;36.50;;;16.50;;
61358;SDS011;47228;46.762;23.598;2023-02-04T13:05:31;31.50;;;15.90;;
61358;SDS011;47228;46.762;23.598;2023-02-04T13:08:00;33.90;;;16.30;;
61358;SDS011;47228;46.762;23.598;2023-02-04T13:10:29;23.30;;;11.20;;
61358;SDS011;47228;46.762;23.598;2023-02-04T13:12:57;25.20;;;12.10;;
61358;SDS011;47228;46.762;23.598;2023-02-04T13:15:29;14.10;;;7.60;;
61358;SDS011;47228;46.762;23.598;2023-02-04T13:17:57;15.70;;;8.20;;
61358;SDS011;47228;46.762;23.598;2023-02-04T13:20:25;13.70;;;7.10;;
61358;SDS011;47228;46.762;23.598;2023-02-04T13:22:53;11.30;;;6.40;;
61358;SDS011;47228;46.762;23.598;2023-02-04T13:25:22;9.70;;;6.40;;
61358;SDS011;47228;46.762;23.598;2023-02-04T13:27:49;9.90;;;6.90;;
61358;SDS011;47228;46.762;23.598;2023-02-04T13:30:17;11.70;;;7.10;;
61358;SDS011;47228;46.762;23.598;2023-02-04T13:32:45;11.20;;;6.30;;
61358;SDS011;47228;46.762;23.598;2023-02-04T13:35:14;11.10;;;6.90;;
61358;SDS011;47228;46.762;23.598;2023-02-04T13:37:42;11.70;;;6.60;;
61358;SDS011;47228;46.762;23.598;2023-02-04T13:40:10;12.70;;;7.20;;
61358;SDS011;47228;46.762;23.598;2023-02-04T13:42:38;10.70;;;6.50;;
61358;SDS011;47228;46.762;23.598;2023-02-04T13:45:06;14.30;;;7.00;;
61358;SDS011;47228;46.762;23.598;2023-02-04T13:47:38;12.40;;;7.50;;
61358;SDS011;47228;46.762;23.598;2023-02-04T13:50:06;13.30;;;7.70;;
61358;SDS011;47228;46.762;23.598;2023-02-04T13:52:35;13.30;;;8.40;;
61358;SDS011;47228;46.762;23.598;2023-02-04T13:55:03;15.80;;;8.80;;
61358;SDS011;47228;46.762;23.598;2023-02-04T13:57:31;12.60;;;7.90;;
61358;SDS011;47228;46.762;23.598;2023-02-04T13:59:59;13.80;;;7.90;;
61358;SDS011;47228;46.762;23.598;2023-02-04T14:02:27;12.80;;;6.70;;
61358;SDS011;47228;46.762;23.598;2023-02-04T14:04:55;11.50;;;6.60;;
61358;SDS011;47228;46.762;23.598;2023-02-04T14:07:24;16.20;;;7.60;;
61358;SDS011;47228;46.762;23.598;2023-02-04T14:09:52;12.30;;;7.50;;
61358;SDS011;47228;46.762;23.598;2023-02-04T14:12:20;11.20;;;6.90;;
61358;SDS011;47228;46.762;23.598;2023-02-04T14:14:48;12.70;;;6.70;;
61358;SDS011;47228;46.762;23.598;2023-02-04T14:17:16;13.50;;;6.70;;
61358;SDS011;47228;46.762;23.598;2023-02-04T14:19:45;13.00;;;7.10;;
61358;SDS011;47228;46.762;23.598;2023-02-04T14:22:13;13.50;;;7.50;;
61358;SDS011;47228;46.762;23.598;2023-02-04T14:24:41;14.80;;;7.90;;
61358;SDS011;47228;46.762;23.598;2023-02-04T14:27:09;17.60;;;8.60;;
61358;SDS011;47228;46.762;23.598;2023-02-04T14:29:37;20.50;;;9.50;;
61358;SDS011;47228;46.762;23.598;2023-02-04T14:32:05;19.20;;;9.50;;
61358;SDS011;47228;46.762;23.598;2023-02-04T14:34:33;15.90;;;8.70;;
61358;SDS011;47228;46.762;23.598;2023-02-04T14:37:01;14.60;;;7.50;;
61358;SDS011;47228;46.762;23.598;2023-02-04T14:39:29;20.00;;;10.30;;
61358;SDS011;47228;46.762;23.598;2023-02-04T14:41:57;16.60;;;8.80;;
61358;SDS011;47228;46.762;23.598;2023-02-04T14:44:25;15.90;;;8.50;;
61358;SDS011;47228;46.762;23.598;2023-02-04T14:46:53;27.20;;;12.70;;
61358;SDS011;47228;46.762;23.598;2023-02-04T14:49:21;21.50;;;11.30;;
61358;SDS011;47228;46.762;23.598;2023-02-04T14:51:49;17.30;;;9.90;;